createdAt,value
2018-02-07T00:00:08.672Z,82.17
2018-02-07T00:02:35.483Z,84.03
2018-02-07T00:05:02.248Z,94.77
2018-02-07T00:07:29.009Z,80.87
2018-02-07T00:09:55.809Z,79.30
2018-02-07T00:12:22.570Z,75.93
2018-02-07T00:14:49.340Z,71.90
2018-02-07T00:17:16.108Z,75.20
2018-02-07T00:19:42.869Z,73.97
2018-02-07T00:22:09.865Z,74.37
2018-02-07T00:24:36.719Z,78.53
2018-02-07T00:27:03.544Z,83.77
2018-02-07T00:29:30.336Z,81.40
2018-02-07T00:31:57.102Z,78.10
2018-02-07T00:34:23.908Z,79.40
2018-02-07T00:36:50.672Z,77.43
2018-02-07T00:39:17.437Z,77.60
2018-02-07T00:41:44.245Z,74.37
2018-02-07T00:44:11.021Z,76.03
2018-02-07T00:46:37.784Z,78.33
2018-02-07T00:49:04.601Z,76.83
2018-02-07T00:51:31.408Z,71.53
2018-02-07T00:53:58.179Z,74.07
2018-02-07T00:56:24.945Z,72.23
2018-02-07T00:58:51.751Z,66.77
2018-02-07T01:01:18.509Z,69.37
2018-02-07T01:03:45.268Z,60.87
2018-02-07T01:06:12.032Z,54.27
2018-02-07T01:08:38.790Z,52.80
2018-02-07T01:11:05.544Z,49.50
2018-02-07T01:13:32.340Z,51.60
2018-02-07T01:15:59.124Z,51.37
2018-02-07T01:18:25.884Z,49.63
2018-02-07T01:20:52.649Z,51.20
2018-02-07T01:23:19.404Z,51.23
2018-02-07T01:25:46.216Z,50.97
2018-02-07T01:28:13.051Z,52.03
2018-02-07T01:30:39.810Z,50.40
2018-02-07T01:33:06.573Z,51.37
2018-02-07T01:35:33.416Z,51.03
2018-02-07T01:38:00.244Z,44.37
2018-02-07T01:40:26.997Z,46.60
2018-02-07T01:42:53.752Z,45.80
2018-02-07T01:45:20.512Z,45.17
2018-02-07T01:47:47.268Z,46.90
2018-02-07T01:50:14.064Z,40.80
2018-02-07T01:52:40.832Z,43.03
2018-02-07T01:55:07.597Z,44.57
2018-02-07T01:57:34.396Z,44.70
2018-02-07T02:00:01.148Z,42.03
2018-02-07T02:02:27.944Z,41.17
2018-02-07T02:04:54.784Z,41.17
2018-02-07T02:07:21.596Z,41.33
2018-02-07T02:09:48.358Z,39.20
2018-02-07T02:12:15.160Z,42.08
2018-02-07T02:14:41.948Z,40.50
2018-02-07T02:17:08.714Z,40.65
2018-02-07T02:19:35.472Z,40.47
2018-02-07T02:22:02.248Z,40.95
2018-02-07T02:24:29.218Z,41.28
2018-02-07T02:26:56.024Z,42.88
2018-02-07T02:29:22.785Z,40.30
2018-02-07T02:31:49.541Z,42.03
2018-02-07T02:34:16.352Z,43.20
2018-02-07T02:36:43.131Z,41.17
2018-02-07T02:39:09.893Z,41.50
2018-02-07T02:41:36.689Z,41.67
2018-02-07T02:44:03.452Z,41.33
2018-02-07T02:46:30.261Z,40.60
2018-02-07T02:48:58.028Z,41.10
2018-02-07T02:51:24.827Z,42.73
2018-02-07T02:53:51.693Z,42.07
2018-02-07T02:56:18.460Z,40.20
2018-02-07T02:58:45.253Z,39.07
2018-02-07T03:01:12.068Z,40.53
2018-02-07T03:03:38.824Z,37.90
2018-02-07T03:06:05.645Z,36.70
2018-02-07T03:08:32.396Z,37.07
2018-02-07T03:10:59.184Z,37.43
2018-02-07T03:13:25.955Z,37.85
2018-02-07T03:15:52.714Z,36.13
2018-02-07T03:18:19.551Z,36.53
2018-02-07T03:20:47.302Z,35.13
2018-02-07T03:23:14.056Z,36.50
2018-02-07T03:25:40.808Z,37.07
2018-02-07T03:28:07.602Z,37.10
2018-02-07T03:30:34.363Z,35.07
2018-02-07T03:33:01.132Z,37.10
2018-02-07T03:35:27.905Z,36.33
2018-02-07T03:37:54.672Z,37.25
2018-02-07T03:40:21.464Z,36.47
2018-02-07T03:42:48.229Z,37.25
2018-02-07T03:45:14.987Z,34.43
2018-02-07T03:47:41.752Z,34.90
2018-02-07T03:50:08.508Z,37.17
2018-02-07T03:52:35.305Z,36.40
2018-02-07T03:55:02.068Z,36.60
2018-02-07T03:57:28.824Z,38.60
2018-02-07T03:59:55.628Z,37.57
2018-02-07T04:02:22.398Z,35.23
2018-02-07T04:04:49.155Z,34.80
2018-02-07T04:07:16.021Z,35.20
2018-02-07T04:09:42.792Z,35.63
2018-02-07T04:12:09.548Z,34.70
2018-02-07T04:14:36.349Z,32.67
2018-02-07T04:17:03.104Z,32.97
2018-02-07T04:19:29.878Z,33.30
2018-02-07T04:21:56.784Z,33.63
2018-02-07T04:24:23.536Z,33.10
2018-02-07T04:26:50.288Z,29.20
2018-02-07T04:29:17.080Z,31.97
2018-02-07T04:31:43.836Z,31.27
2018-02-07T04:34:10.592Z,31.47
2018-02-07T04:36:37.405Z,30.97
2018-02-07T04:39:04.181Z,29.60
2018-02-07T04:41:30.940Z,29.63
2018-02-07T04:43:57.713Z,30.47
2018-02-07T04:46:24.486Z,31.40
2018-02-07T04:48:51.240Z,32.37
2018-02-07T04:51:18.001Z,31.23
2018-02-07T04:53:44.812Z,31.97
2018-02-07T04:56:11.569Z,31.50
2018-02-07T04:58:38.320Z,31.87
2018-02-07T05:01:05.116Z,30.93
2018-02-07T05:03:31.884Z,33.40
2018-02-07T05:05:58.644Z,33.27
2018-02-07T05:08:25.501Z,32.97
2018-02-07T05:10:52.336Z,33.17
2018-02-07T05:13:19.101Z,31.83
2018-02-07T05:15:45.910Z,33.23
2018-02-07T05:18:12.659Z,32.33
2018-02-07T05:20:39.416Z,34.20
2018-02-07T05:23:06.213Z,36.57
2018-02-07T05:25:32.972Z,36.60
2018-02-07T05:27:59.752Z,34.17
2018-02-07T05:30:26.533Z,34.20
2018-02-07T05:32:53.320Z,33.83
2018-02-07T05:35:20.141Z,36.17
2018-02-07T05:37:46.905Z,39.90
2018-02-07T05:40:13.665Z,38.17
2018-02-07T05:42:40.436Z,36.70
2018-02-07T05:45:07.213Z,36.73
2018-02-07T05:47:34.037Z,36.17
2018-02-07T05:50:00.840Z,37.83
2018-02-07T05:52:27.620Z,39.08
2018-02-07T05:54:54.430Z,36.63
2018-02-07T05:57:21.189Z,37.17
2018-02-07T05:59:48.268Z,38.20
2018-02-07T06:02:15.048Z,38.07
2018-02-07T06:04:41.844Z,40.17
2018-02-07T06:07:08.600Z,40.67
2018-02-07T06:09:35.369Z,44.45
2018-02-07T06:12:02.132Z,42.97
2018-02-07T06:14:28.884Z,41.90
2018-02-07T06:16:55.832Z,41.35
2018-02-07T06:19:22.605Z,41.40
2018-02-07T06:21:49.377Z,43.60
2018-02-07T06:24:17.652Z,42.17
2018-02-07T06:26:44.413Z,43.30
2018-02-07T06:29:11.189Z,42.30
2018-02-07T06:31:37.964Z,42.22
2018-02-07T06:34:04.768Z,42.17
2018-02-07T06:36:31.597Z,42.55
2018-02-07T06:38:58.360Z,38.35
2018-02-07T06:41:25.124Z,40.72
2018-02-07T06:43:51.901Z,43.90
2018-02-07T06:46:18.722Z,43.05
2018-02-07T06:48:45.499Z,44.67
2018-02-07T06:51:12.284Z,47.72
2018-02-07T06:53:39.098Z,44.45
2018-02-07T06:56:05.885Z,48.40
2018-02-07T06:58:32.663Z,44.30
2018-02-07T07:00:59.421Z,43.53
2018-02-07T07:03:26.198Z,45.80
2018-02-07T07:05:53.012Z,47.27
2018-02-07T07:08:19.777Z,47.43
2018-02-07T07:10:46.549Z,54.40
2018-02-07T07:13:13.339Z,54.90
2018-02-07T07:15:40.128Z,43.65
2018-02-07T07:18:06.893Z,48.97
2018-02-07T07:20:33.789Z,53.10
2018-02-07T07:23:00.547Z,44.63
2018-02-07T07:25:27.339Z,38.92
2018-02-07T07:27:54.153Z,41.30
2018-02-07T07:30:20.934Z,38.83
2018-02-07T07:32:47.709Z,37.40
2018-02-07T07:35:14.748Z,37.80
2018-02-07T07:37:41.504Z,40.33
2018-02-07T07:40:08.288Z,38.73
2018-02-07T07:42:35.073Z,41.40
2018-02-07T07:45:03.689Z,41.47
2018-02-07T07:47:30.461Z,39.47
2018-02-07T07:49:57.315Z,45.40
2018-02-07T07:52:24.144Z,45.80
2018-02-07T07:54:50.913Z,48.93
2018-02-07T07:57:17.672Z,42.37
2018-02-07T07:59:44.468Z,42.77
2018-02-07T08:02:11.261Z,44.70
2018-02-07T08:04:38.045Z,43.30
2018-02-07T08:07:04.805Z,46.27
2018-02-07T08:09:31.640Z,44.67
2018-02-07T08:11:58.413Z,42.37
2018-02-07T08:14:25.208Z,39.40
2018-02-07T08:16:51.968Z,40.43
2018-02-07T08:19:18.736Z,40.77
2018-02-07T08:21:45.528Z,41.57
2018-02-07T08:24:12.288Z,38.73
2018-02-07T08:26:39.053Z,43.10
2018-02-07T08:29:05.829Z,51.67
2018-02-07T08:31:32.655Z,46.57
2018-02-07T08:33:59.416Z,43.20
2018-02-07T08:36:26.229Z,45.37
2018-02-07T08:38:52.993Z,40.53
2018-02-07T08:41:19.749Z,43.50
2018-02-07T08:43:46.610Z,43.30
2018-02-07T08:46:13.392Z,41.70
2018-02-07T08:48:40.144Z,42.37
2018-02-07T08:51:06.900Z,42.27
2018-02-07T08:53:33.666Z,43.33
2018-02-07T08:56:00.437Z,42.73
2018-02-07T08:58:27.349Z,40.57
2018-02-07T09:00:54.116Z,42.40
2018-02-07T09:03:20.881Z,40.03
2018-02-07T09:05:47.680Z,43.10
2018-02-07T09:08:14.437Z,40.60
2018-02-07T09:10:41.194Z,43.20
2018-02-07T09:13:07.979Z,41.93
2018-02-07T09:15:34.737Z,45.20
2018-02-07T09:18:01.496Z,44.63
2018-02-07T09:20:28.292Z,42.20
2018-02-07T09:22:55.060Z,39.00
2018-02-07T09:25:21.819Z,38.83
2018-02-07T09:27:48.640Z,37.97
2018-02-07T09:30:15.396Z,39.30
2018-02-07T09:32:42.153Z,37.80
2018-02-07T09:35:08.924Z,38.97
2018-02-07T09:37:35.720Z,39.90
2018-02-07T09:40:02.487Z,38.03
2018-02-07T09:42:29.255Z,40.90
2018-02-07T09:44:56.095Z,37.00
2018-02-07T09:47:22.854Z,41.27
2018-02-07T09:49:49.608Z,38.13
2018-02-07T09:52:16.368Z,38.30
2018-02-07T09:54:43.136Z,40.97
2018-02-07T09:57:09.896Z,36.57
2018-02-07T09:59:36.656Z,41.37
2018-02-07T10:02:03.457Z,45.20
2018-02-07T10:04:30.242Z,40.90
2018-02-07T10:06:57.012Z,40.90
2018-02-07T10:09:23.867Z,38.23
2018-02-07T10:11:50.631Z,38.90
2018-02-07T10:14:17.397Z,43.67
2018-02-07T10:16:44.222Z,39.07
2018-02-07T10:19:10.985Z,38.63
2018-02-07T10:21:37.784Z,40.90
2018-02-07T10:24:04.545Z,42.13
2018-02-07T10:26:31.312Z,42.90
2018-02-07T10:28:58.200Z,41.33
2018-02-07T10:31:24.959Z,39.07
2018-02-07T10:33:52.027Z,44.33
2018-02-07T10:36:18.790Z,43.17
2018-02-07T10:38:45.545Z,41.47
2018-02-07T10:41:12.305Z,41.37
2018-02-07T10:43:39.060Z,41.37
2018-02-07T10:46:05.824Z,42.30
2018-02-07T10:48:32.584Z,43.33
2018-02-07T10:50:59.345Z,44.27
2018-02-07T10:53:26.097Z,42.73
2018-02-07T10:55:52.898Z,43.17
2018-02-07T10:58:19.668Z,43.00
2018-02-07T11:00:46.424Z,44.70
2018-02-07T11:03:13.226Z,41.63
2018-02-07T11:05:40.012Z,41.63
2018-02-07T11:08:06.762Z,44.87
2018-02-07T11:10:33.653Z,41.27
2018-02-07T11:13:00.607Z,43.30
2018-02-07T11:15:27.370Z,45.23
2018-02-07T11:17:54.169Z,41.47
2018-02-07T11:20:20.933Z,43.07
2018-02-07T11:22:47.728Z,70.00
2018-02-07T11:25:14.492Z,62.53
2018-02-07T11:27:41.258Z,43.83
2018-02-07T11:30:08.061Z,42.77
2018-02-07T11:32:34.823Z,42.27
2018-02-07T11:35:01.794Z,43.13
2018-02-07T11:37:28.594Z,43.57
2018-02-07T11:39:55.350Z,41.30
2018-02-07T11:42:22.111Z,42.00
2018-02-07T11:44:48.909Z,41.00
2018-02-07T11:47:15.670Z,43.13
2018-02-07T11:49:42.424Z,42.10
2018-02-07T11:52:09.228Z,44.47
2018-02-07T11:54:36.008Z,43.47
2018-02-07T11:57:02.776Z,53.57
2018-02-07T11:59:29.548Z,51.10
2018-02-07T12:01:56.324Z,45.90
2018-02-07T12:04:23.151Z,44.07
2018-02-07T12:06:49.909Z,40.43
2018-02-07T12:09:16.762Z,39.17
2018-02-07T12:11:43.533Z,40.80
2018-02-07T12:14:10.960Z,42.17
2018-02-07T12:16:37.729Z,39.67
2018-02-07T12:19:04.480Z,40.23
2018-02-07T12:21:31.289Z,39.80
2018-02-07T12:23:58.085Z,40.57
2018-02-07T12:26:24.848Z,41.93
2018-02-07T12:28:51.613Z,42.23
2018-02-07T12:31:18.401Z,43.67
2018-02-07T12:33:45.196Z,39.57
2018-02-07T12:36:11.961Z,41.83
2018-02-07T12:38:38.716Z,40.70
2018-02-07T12:41:05.478Z,41.37
2018-02-07T12:43:32.242Z,39.67
2018-02-07T12:45:59.046Z,40.37
2018-02-07T12:48:25.800Z,40.17
2018-02-07T12:50:52.586Z,41.07
2018-02-07T12:53:19.400Z,42.23
2018-02-07T12:55:46.169Z,43.07
2018-02-07T12:58:12.924Z,45.00
2018-02-07T13:00:39.726Z,43.60
2018-02-07T13:03:06.553Z,45.77
2018-02-07T13:05:33.313Z,46.43
2018-02-07T13:08:00.188Z,47.00
2018-02-07T13:10:26.944Z,50.17
2018-02-07T13:12:53.747Z,55.80
2018-02-07T13:15:20.504Z,51.13
2018-02-07T13:17:47.270Z,59.67
2018-02-07T13:20:14.064Z,51.23
2018-02-07T13:22:40.825Z,50.97
2018-02-07T13:25:07.593Z,50.60
2018-02-07T13:27:34.396Z,47.60
2018-02-07T13:30:01.164Z,44.57
2018-02-07T13:32:27.942Z,47.93
2018-02-07T13:34:54.734Z,43.63
2018-02-07T13:37:21.500Z,42.10
2018-02-07T13:39:48.252Z,42.83
2018-02-07T13:42:15.052Z,43.83
2018-02-07T13:44:41.825Z,45.67
2018-02-07T13:47:08.597Z,45.70
2018-02-07T13:49:35.397Z,42.73
2018-02-07T13:52:02.160Z,42.63
2018-02-07T13:54:28.917Z,43.37
2018-02-07T13:56:55.721Z,55.57
2018-02-07T13:59:22.481Z,46.63
2018-02-07T14:01:49.256Z,51.70
2018-02-07T14:04:16.020Z,46.93
2018-02-07T14:06:42.829Z,43.47
2018-02-07T14:09:09.598Z,50.90
2018-02-07T14:11:36.389Z,44.03
2018-02-07T14:14:03.148Z,43.67
2018-02-07T14:16:29.900Z,47.27
2018-02-07T14:18:56.696Z,48.93
2018-02-07T14:21:23.478Z,48.90
2018-02-07T14:23:50.240Z,49.47
2018-02-07T14:26:17.041Z,56.40
2018-02-07T14:28:43.816Z,49.57
2018-02-07T14:31:10.576Z,47.17
2018-02-07T14:33:37.340Z,47.17
2018-02-07T14:36:04.125Z,47.93
2018-02-07T14:38:30.936Z,47.73
2018-02-07T14:40:57.688Z,49.47
2018-02-07T14:43:24.452Z,46.93
2018-02-07T14:45:51.261Z,50.90
2018-02-07T14:48:18.027Z,63.93
2018-02-07T14:50:44.780Z,50.40
2018-02-07T14:53:11.581Z,47.13
2018-02-07T14:55:38.352Z,48.07
2018-02-07T14:58:05.110Z,49.80
2018-02-07T15:00:31.870Z,50.03
2018-02-07T15:02:58.664Z,55.27
2018-02-07T15:05:25.420Z,50.90
2018-02-07T15:07:52.184Z,50.83
2018-02-07T15:10:19.004Z,50.37
2018-02-07T15:12:45.756Z,50.33
2018-02-07T15:15:12.529Z,50.53
2018-02-07T15:17:39.332Z,57.10
2018-02-07T15:20:06.109Z,55.17
2018-02-07T15:22:33.078Z,49.37
2018-02-07T15:24:59.843Z,56.23
2018-02-07T15:27:26.604Z,65.33
2018-02-07T15:29:53.365Z,62.80
2018-02-07T15:32:20.141Z,57.20
2018-02-07T15:34:46.960Z,65.23
2018-02-07T15:37:13.716Z,57.30
2018-02-07T15:39:40.477Z,54.37
2018-02-07T15:42:07.283Z,57.00
2018-02-07T15:44:34.082Z,66.57
2018-02-07T15:47:00.847Z,63.37
2018-02-07T15:49:27.656Z,66.90
2018-02-07T15:51:55.216Z,59.50
2018-02-07T15:54:22.002Z,61.73
2018-02-07T15:56:48.772Z,63.67
2018-02-07T15:59:15.560Z,50.93
2018-02-07T16:01:42.348Z,57.53
2018-02-07T16:04:09.121Z,62.90
2018-02-07T16:06:35.964Z,50.67
2018-02-07T16:09:02.732Z,64.50
2018-02-07T16:11:29.492Z,47.73
2018-02-07T16:13:56.292Z,61.60
2018-02-07T16:16:23.070Z,57.83
2018-02-07T16:18:49.847Z,63.33
2018-02-07T16:21:16.616Z,59.10
2018-02-07T16:23:43.396Z,57.07
2018-02-07T16:26:10.207Z,56.40
2018-02-07T16:28:36.968Z,53.13
2018-02-07T16:31:03.783Z,92.43
2018-02-07T16:33:30.549Z,103.87
2018-02-07T16:35:57.308Z,81.37
2018-02-07T16:38:24.128Z,74.93
2018-02-07T16:40:50.888Z,78.80
2018-02-07T16:43:17.660Z,87.00
2018-02-07T16:45:44.468Z,67.97
2018-02-07T16:48:11.233Z,61.77
2018-02-07T16:50:38.009Z,65.10
2018-02-07T16:53:04.777Z,78.13
2018-02-07T16:55:32.426Z,76.10
2018-02-07T16:57:59.196Z,82.30
2018-02-07T17:00:25.968Z,101.50
2018-02-07T17:02:52.742Z,114.27
2018-02-07T17:05:19.505Z,84.03
2018-02-07T17:07:46.356Z,89.97
2018-02-07T17:10:13.218Z,81.23
2018-02-07T17:12:40.025Z,88.23
2018-02-07T17:15:06.831Z,100.87
2018-02-07T17:17:33.609Z,74.37
2018-02-07T17:20:00.377Z,67.20
2018-02-07T17:22:27.177Z,67.43
2018-02-07T17:24:54.016Z,83.37
2018-02-07T17:27:20.805Z,95.47
2018-02-07T17:29:47.584Z,89.43
2018-02-07T17:32:14.528Z,83.60
